Main page
METAR-TAF:

METAR-TAF

Airports :

Athens, Greece

Athens International Airport

latitude: 37-56N, longitude: 023-56E, elevation: 94 m

Current weather observation

The report was made 47 minutes ago, at 08:20 UTC
Wind 19 kt from the North/Northeast
Temperature 31°C
Humidity 29%
Pressure 1014 hPa
Visibility 10 km or more
no clouds below 1500 m and no cumulonimbus

METAR: LGAV 190820Z 02019KT CAVOK 31/11 Q1014 NOSIG

Time: 12:07 (09:07 UTC)

Forecast

The report was made 4 hours and 7 minutes ago, at 05:00 UTC
Forecast valid from 19 at 06 UTC to 20 at 06 UTC
Wind 6 kt from the North
Visibility 10 km or more
Few clouds at a height of 2500 ft
Becoming
from 19 at 06 UTC to 19 at 08 UTC
Wind 16 kt from the North
Temporary
from 19 at 08 UTC to 19 at 15 UTC
Wind 18 kt from the North/Northeast with gusts up to 28 kt
Becoming
from 19 at 16 UTC to 19 at 18 UTC
Wind 6 kt from the North

TAF: LGAV 190500Z 1906/2006 35006KT 9999 FEW025 BECMG 1906/1908 01016KT TEMPO 1908/1915 02018G28KT BECMG 1916/1918 36006KT

Weather observations and forecasts of more than 4000 airports (METAR and TAF reports).

The available stations are represented by yellow and red dots on the map.

Hover mouse over dot to see the name of the station.

Then click to see weather observations and forecasts.

To change the map : click on the green buttons with a black cross to zoom in, on the green button with a dash to zoom out, or on the green arrows for adjacent maps.


METAR-TAF: